Time;durP1;ratioP1;P1;durP2;ratioP2;P2;SDS_P1;SDS_P2;PMS_P1;PMS_P2;Temp;Humidity;BMP_temperature;BMP_pressure;BME280_temperature;BME280_humidity;BME280_pressure;Samples;Min_cycle;Max_cycle;Signal;HPM_P1;HPM_P2
2023/03/05 00:01:18;;;;;;;29.08;13.75;;;2.80;99.90;;;;;;5018086;28;20749;-61
2023/03/05 00:03:44;;;;;;;29.25;13.98;;;2.80;99.90;;;;;;5000723;28;20072;-61
2023/03/05 00:06:10;;;;;;;26.10;13.20;;;2.80;99.90;;;;;;5011963;28;20050;-63
2023/03/05 00:08:36;;;;;;;26.33;12.02;;;2.90;99.90;;;;;;5008836;28;20498;-62
2023/03/05 00:11:08;;;;;;;23.83;11.95;;;2.90;99.90;;;;;;5004108;28;20077;-61
2023/03/05 00:13:35;;;;;;;24.33;13.15;;;2.90;99.90;;;;;;5019080;28;20022;-61
2023/03/05 00:16:06;;;;;;;25.83;11.75;;;2.90;99.90;;;;;;4999584;28;20029;-62
2023/03/05 00:18:32;;;;;;;25.27;12.23;;;2.90;99.90;;;;;;5014756;28;20124;-61
2023/03/05 00:20:57;;;;;;;23.45;10.70;;;2.90;99.90;;;;;;5006019;28;20026;-63
2023/03/05 00:23:23;;;;;;;20.80;11.13;;;2.90;99.90;;;;;;5005962;28;20022;-62
2023/03/05 00:25:49;;;;;;;17.42;9.57;;;2.90;99.90;;;;;;5009657;28;20026;-60
2023/03/05 00:28:14;;;;;;;14.20;8.93;;;2.80;99.90;;;;;;4995305;28;20031;-59
2023/03/05 00:30:40;;;;;;;15.55;9.82;;;2.90;99.90;;;;;;5015988;28;20546;-60
2023/03/05 00:33:06;;;;;;;15.10;7.57;;;2.80;99.90;;;;;;5004549;28;20482;-63
2023/03/05 00:35:39;;;;;;;11.00;7.03;;;2.90;99.90;;;;;;5004542;28;20589;-60
2023/03/05 00:38:04;;;;;;;14.50;8.00;;;2.90;99.90;;;;;;5009471;28;20037;-60
2023/03/05 00:40:33;;;;;;;10.63;6.45;;;2.80;99.90;;;;;;5006753;28;20026;-57
2023/03/05 00:42:59;;;;;;;12.23;6.35;;;2.90;99.90;;;;;;5020273;28;20034;-58
2023/03/05 00:45:24;;;;;;;9.93;5.90;;;2.90;99.90;;;;;;5002884;28;20037;-58
2023/03/05 00:47:50;;;;;;;13.85;7.05;;;2.90;99.90;;;;;;5009056;28;20161;-58
2023/03/05 00:50:15;;;;;;;9.70;5.20;;;2.90;99.90;;;;;;5012865;28;20057;-59
2023/03/05 00:52:41;;;;;;;10.15;5.10;;;2.90;99.90;;;;;;4999953;28;20079;-56
2023/03/05 00:55:07;;;;;;;9.82;6.70;;;2.90;99.90;;;;;;5021708;28;20668;-58
2023/03/05 00:57:33;;;;;;;10.00;5.78;;;2.90;99.90;;;;;;5000418;28;20503;-58
2023/03/05 00:59:58;;;;;;;12.15;5.30;;;2.90;99.90;;;;;;5009079;28;20034;-58
2023/03/05 01:02:24;;;;;;;7.38;5.78;;;2.80;99.90;;;;;;5004979;28;20026;-59
2023/03/05 01:04:50;;;;;;;11.75;5.68;;;2.80;99.90;;;;;;5000999;28;20041;-58
2023/03/05 01:07:16;;;;;;;9.60;4.82;;;2.80;99.90;;;;;;5018853;28;20052;-58
2023/03/05 01:09:41;;;;;;;8.15;4.85;;;2.80;99.90;;;;;;4997704;28;20057;-57
2023/03/05 01:12:07;;;;;;;7.03;5.13;;;2.80;99.90;;;;;;5007404;28;20026;-58
2023/03/05 01:14:34;;;;;;;14.60;6.93;;;2.80;99.90;;;;;;5004316;28;20030;-57
2023/03/05 01:17:00;;;;;;;11.73;5.43;;;2.80;99.90;;;;;;5000823;28;20037;-57
2023/03/05 01:19:26;;;;;;;13.02;6.03;;;2.80;99.90;;;;;;5014817;28;20701;-58
2023/03/05 01:21:51;;;;;;;11.07;4.30;;;2.80;99.90;;;;;;4997847;28;20037;-57
2023/03/05 01:24:17;;;;;;;7.68;3.85;;;2.80;99.90;;;;;;5011211;28;20048;-58
2023/03/05 01:26:43;;;;;;;10.25;3.58;;;2.80;99.90;;;;;;5005265;28;20026;-58
2023/03/05 01:29:09;;;;;;;6.22;2.83;;;2.70;99.90;;;;;;5001193;28;20569;-57
2023/03/05 01:31:34;;;;;;;6.60;2.95;;;2.70;99.90;;;;;;5014160;28;20037;-58
2023/03/05 01:34:00;;;;;;;7.55;2.15;;;2.80;99.90;;;;;;4998374;28;20022;-57
2023/03/05 01:36:26;;;;;;;4.80;2.30;;;2.70;99.90;;;;;;5010386;28;20072;-56
2023/03/05 01:38:51;;;;;;;6.20;2.65;;;2.70;99.90;;;;;;5005020;28;20258;-57
2023/03/05 01:41:18;;;;;;;9.40;1.80;;;2.70;99.90;;;;;;5003188;28;20022;-57
2023/03/05 01:43:45;;;;;;;6.45;2.05;;;2.70;99.90;;;;;;5012830;28;20017;-57
2023/03/05 01:46:15;;;;;;;7.07;3.25;;;2.70;99.90;;;;;;4997809;28;20114;-57
2023/03/05 01:48:48;;;;;;;4.63;2.03;;;2.60;99.90;;;;;;5015056;28;20026;-58
2023/03/05 01:51:15;;;;;;;5.50;2.25;;;2.60;99.90;;;;;;4986747;28;20672;-58
2023/03/05 01:53:40;;;;;;;6.15;2.35;;;2.50;99.90;;;;;;5007640;28;20026;-57
2023/03/05 01:56:06;;;;;;;6.03;1.85;;;2.50;99.90;;;;;;5010442;28;20091;-57
2023/03/05 01:58:32;;;;;;;6.43;1.80;;;2.50;99.90;;;;;;4997611;28;20078;-58
2023/03/05 02:00:57;;;;;;;4.75;1.67;;;2.50;99.90;;;;;;5013791;28;20030;-59
2023/03/05 02:03:25;;;;;;;8.32;2.00;;;2.50;99.90;;;;;;4996885;28;20031;-58
2023/03/05 02:05:50;;;;;;;4.25;1.55;;;2.40;99.90;;;;;;5006697;28;20490;-57
2023/03/05 02:08:19;;;;;;;6.63;1.85;;;2.50;99.90;;;;;;5007955;28;20050;-57
2023/03/05 02:10:48;;;;;;;3.53;1.50;;;2.50;99.90;;;;;;4997344;28;20041;-58
2023/03/05 02:13:21;;;;;;;5.97;1.80;;;2.50;99.90;;;;;;5018637;28;20029;-58
2023/03/05 02:15:48;;;;;;;3.70;1.55;;;2.50;99.90;;;;;;4993584;28;20618;-59
2023/03/05 02:18:16;;;;;;;6.95;1.90;;;2.50;99.90;;;;;;5009473;28;20057;-59
2023/03/05 02:20:55;;;;;;;5.13;1.50;;;2.50;99.90;;;;;;5005613;28;20091;-58
2023/03/05 02:23:26;;;;;;;3.72;1.60;;;2.40;99.90;;;;;;5002147;28;20033;-57
2023/03/05 02:25:52;;;;;;;3.80;1.42;;;2.50;99.90;;;;;;5010534;28;20136;-58
2023/03/05 02:28:33;;;;;;;8.23;1.95;;;2.40;99.90;;;;;;4998052;28;20052;-57
2023/03/05 02:30:58;;;;;;;5.32;1.92;;;2.50;99.90;;;;;;4994639;28;20049;-58
2023/03/05 02:33:24;;;;;;;5.50;1.48;;;2.40;99.90;;;;;;5008698;28;20034;-59
2023/03/05 02:35:50;;;;;;;2.97;1.33;;;2.40;99.90;;;;;;5006099;28;20548;-59
2023/03/05 02:38:18;;;;;;;4.03;1.42;;;2.40;99.90;;;;;;5003938;28;20514;-58
2023/03/05 02:40:44;;;;;;;5.05;1.75;;;2.40;99.90;;;;;;5012581;28;20426;-58
2023/03/05 02:43:11;;;;;;;4.03;1.83;;;2.40;99.90;;;;;;4995646;28;20026;-57
2023/03/05 02:45:37;;;;;;;6.00;2.03;;;2.40;99.90;;;;;;4979239;28;20031;-58
2023/03/05 02:48:03;;;;;;;5.30;1.52;;;2.40;99.90;;;;;;5006075;28;20676;-58
2023/03/05 02:50:31;;;;;;;4.72;1.45;;;2.40;99.90;;;;;;5007115;28;20125;-58
2023/03/05 02:52:56;;;;;;;2.90;1.00;;;2.40;99.90;;;;;;5000726;28;20032;-58
2023/03/05 02:55:22;;;;;;;8.80;1.70;;;2.30;99.90;;;;;;5013905;28;20030;-58
2023/03/05 02:57:47;;;;;;;4.43;1.35;;;2.30;99.90;;;;;;4994842;28;20084;-57
2023/03/05 03:00:13;;;;;;;7.38;1.58;;;2.30;99.90;;;;;;5010112;28;20029;-58
2023/03/05 03:02:39;;;;;;;3.38;1.23;;;2.30;99.90;;;;;;5004160;28;20058;-57
2023/03/05 03:05:05;;;;;;;5.57;1.50;;;2.30;99.90;;;;;;5000952;28;20056;-59
2023/03/05 03:07:33;;;;;;;7.65;1.50;;;2.30;99.90;;;;;;5012976;28;20478;-58
2023/03/05 03:09:58;;;;;;;6.40;1.45;;;2.30;99.90;;;;;;4996792;28;20057;-58
2023/03/05 03:12:24;;;;;;;4.78;1.38;;;2.20;99.90;;;;;;5007299;28;20125;-56
2023/03/05 03:14:50;;;;;;;6.55;1.40;;;2.20;99.90;;;;;;5005741;28;20045;-58
2023/03/05 03:17:17;;;;;;;4.30;1.80;;;2.20;99.90;;;;;;4999341;28;20033;-57
2023/03/05 03:19:43;;;;;;;2.85;1.27;;;2.20;99.90;;;;;;5009190;28;20061;-58
2023/03/05 03:22:11;;;;;;;6.07;2.25;;;2.20;99.90;;;;;;4993017;28;20060;-59
2023/03/05 03:24:38;;;;;;;3.10;1.10;;;2.20;99.90;;;;;;5012038;28;20045;-57
2023/03/05 03:27:04;;;;;;;4.25;1.20;;;2.20;99.90;;;;;;4998183;28;20121;-58
2023/03/05 03:29:29;;;;;;;5.13;1.65;;;2.20;99.90;;;;;;5001320;28;20118;-59
2023/03/05 03:31:55;;;;;;;2.50;1.27;;;2.20;99.90;;;;;;5010186;28;20566;-56
2023/03/05 03:34:21;;;;;;;3.63;1.30;;;2.20;99.90;;;;;;4996392;28;20030;-56
2023/03/05 03:36:48;;;;;;;2.47;1.00;;;2.20;99.90;;;;;;5011222;28;20482;-56
2023/03/05 03:39:14;;;;;;;3.42;1.10;;;2.20;99.90;;;;;;5000780;28;20026;-57
2023/03/05 03:41:45;;;;;;;4.80;3.33;;;2.20;99.90;;;;;;5005022;28;20076;-57
2023/03/05 03:44:12;;;;;;;3.88;1.00;;;2.20;99.90;;;;;;5006927;28;20028;-59
2023/03/05 03:46:39;;;;;;;3.85;1.70;;;2.20;99.90;;;;;;4995492;28;20813;-57
2023/03/05 03:49:07;;;;;;;5.40;1.30;;;2.20;99.90;;;;;;5013948;28;20647;-58
2023/03/05 03:51:34;;;;;;;7.05;1.50;;;2.20;99.90;;;;;;5003257;28;20031;-56
2023/03/05 03:53:59;;;;;;;4.63;1.02;;;2.20;99.90;;;;;;5015568;28;20033;-58
2023/03/05 03:56:25;;;;;;;11.95;3.08;;;2.20;99.90;;;;;;5008623;28;20403;-59
2023/03/05 03:58:52;;;;;;;7.13;1.50;;;2.20;99.90;;;;;;5001525;28;20060;-59
2023/03/05 04:01:19;;;;;;;3.83;1.40;;;2.20;99.90;;;;;;5016437;28;20470;-60
2023/03/05 04:03:45;;;;;;;6.22;1.73;;;2.20;99.90;;;;;;4997066;28;20034;-59
2023/03/05 04:06:13;;;;;;;4.40;1.20;;;2.20;99.90;;;;;;5014059;28;20074;-58
2023/03/05 04:08:39;;;;;;;14.68;2.97;;;2.20;99.90;;;;;;5010958;28;20603;-58
2023/03/05 04:11:05;;;;;;;4.63;1.35;;;2.30;99.90;;;;;;5005908;28;20037;-58
2023/03/05 04:13:30;;;;;;;5.40;1.33;;;2.20;99.90;;;;;;5020095;28;20394;-58
2023/03/05 04:15:56;;;;;;;4.30;1.17;;;2.20;99.90;;;;;;5000563;28;20030;-57
2023/03/05 04:18:22;;;;;;;7.75;1.40;;;2.20;99.90;;;;;;5017030;28;20112;-58
2023/03/05 04:20:47;;;;;;;8.55;2.65;;;2.20;99.90;;;;;;5002919;28;20066;-58
2023/03/05 04:23:13;;;;;;;4.95;1.35;;;2.20;99.90;;;;;;5002283;28;20033;-58
2023/03/05 04:25:39;;;;;;;3.83;1.10;;;2.20;99.90;;;;;;5016358;28;20022;-57
2023/03/05 04:28:05;;;;;;;2.67;1.60;;;2.20;99.90;;;;;;4998562;28;20419;-58
2023/03/05 04:30:31;;;;;;;9.02;1.70;;;2.20;99.90;;;;;;5014464;28;20038;-57
2023/03/05 04:32:56;;;;;;;6.55;1.15;;;2.20;99.90;;;;;;5008166;28;20065;-58
2023/03/05 04:35:22;;;;;;;2.85;1.30;;;2.20;99.90;;;;;;5004868;28;20053;-58
2023/03/05 04:37:48;;;;;;;2.63;1.27;;;2.20;99.90;;;;;;5014013;28;20105;-58
2023/03/05 04:40:14;;;;;;;4.53;1.15;;;2.20;99.90;;;;;;5002201;28;20035;-58
2023/03/05 04:42:40;;;;;;;2.75;1.30;;;2.20;99.90;;;;;;5017803;28;20033;-58
2023/03/05 04:45:07;;;;;;;10.00;1.95;;;2.20;99.90;;;;;;5004440;28;20084;-58
2023/03/05 04:47:33;;;;;;;1.90;1.38;;;2.20;99.90;;;;;;5010307;28;20030;-57
2023/03/05 04:49:59;;;;;;;3.47;1.48;;;2.20;99.90;;;;;;5013171;28;20052;-59
2023/03/05 04:52:25;;;;;;;2.15;1.40;;;2.20;99.90;;;;;;4997247;28;20109;-59
2023/03/05 04:54:50;;;;;;;3.53;1.00;;;2.20;99.90;;;;;;5017962;28;20568;-59
2023/03/05 04:57:16;;;;;;;2.25;1.52;;;2.20;99.90;;;;;;5003216;28;20030;-59
2023/03/05 04:59:41;;;;;;;3.72;1.42;;;2.20;99.90;;;;;;5005334;28;20030;-59
2023/03/05 05:02:07;;;;;;;3.60;0.90;;;2.20;99.90;;;;;;5010574;28;20121;-58
2023/03/05 05:04:34;;;;;;;3.38;0.90;;;2.20;99.90;;;;;;4996270;28;20022;-58
2023/03/05 05:07:01;;;;;;;1.13;0.82;;;2.20;99.90;;;;;;5014776;28;20038;-58
2023/03/05 05:09:26;;;;;;;2.55;1.00;;;2.20;99.90;;;;;;5000732;28;20495;-59
2023/03/05 05:11:52;;;;;;;4.22;1.20;;;2.10;99.90;;;;;;5008253;28;20073;-58
2023/03/05 05:14:18;;;;;;;4.50;0.90;;;2.10;99.90;;;;;;5010810;28;20038;-58
2023/03/05 05:16:44;;;;;;;1.05;0.88;;;2.10;99.90;;;;;;4999203;28;20117;-57
2023/03/05 05:19:10;;;;;;;2.78;1.10;;;2.10;99.90;;;;;;5015105;28;20471;-58
2023/03/05 05:21:36;;;;;;;3.08;0.90;;;2.10;99.90;;;;;;4999404;28;20037;-58
2023/03/05 05:24:01;;;;;;;2.17;0.80;;;2.10;99.90;;;;;;5012311;28;20398;-59
2023/03/05 05:26:27;;;;;;;2.08;0.80;;;2.10;99.90;;;;;;5008632;28;20034;-57
2023/03/05 05:28:53;;;;;;;4.20;1.90;;;2.10;99.90;;;;;;5001747;28;20041;-59
2023/03/05 05:31:18;;;;;;;3.03;0.75;;;2.10;99.90;;;;;;5016432;28;20540;-58
2023/03/05 05:33:44;;;;;;;1.00;0.80;;;2.10;99.90;;;;;;4997422;28;20087;-57
2023/03/05 05:36:13;;;;;;;1.48;0.90;;;2.10;99.90;;;;;;5009978;28;20030;-59
2023/03/05 05:38:38;;;;;;;4.75;1.13;;;2.10;99.90;;;;;;5012933;28;20029;-59
2023/03/05 05:41:07;;;;;;;5.88;1.20;;;2.10;99.90;;;;;;4999966;28;20029;-57
2023/03/05 05:43:33;;;;;;;4.00;1.23;;;2.10;99.90;;;;;;5013568;28;20482;-59
2023/03/05 05:46:00;;;;;;;1.00;0.55;;;2.10;99.90;;;;;;4996614;28;20076;-59
2023/03/05 05:48:28;;;;;;;3.15;0.90;;;2.10;99.90;;;;;;5012141;28;20037;-57
2023/03/05 05:50:54;;;;;;;4.15;1.15;;;2.10;99.90;;;;;;5004446;28;20034;-58
2023/03/05 05:53:19;;;;;;;3.72;0.85;;;2.10;99.90;;;;;;5001051;28;20541;-58
2023/03/05 05:55:45;;;;;;;1.77;0.85;;;2.10;99.90;;;;;;5010543;28;20555;-60
2023/03/05 05:58:11;;;;;;;1.48;1.00;;;2.10;99.90;;;;;;4997824;28;20018;-59
2023/03/05 06:00:37;;;;;;;4.88;1.02;;;2.10;99.90;;;;;;5012421;28;20034;-57
2023/03/05 06:03:03;;;;;;;2.38;1.00;;;2.10;99.90;;;;;;5005133;28;20045;-60
2023/03/05 06:05:28;;;;;;;1.80;0.90;;;2.00;99.90;;;;;;5003870;28;20026;-59
2023/03/05 06:07:54;;;;;;;1.73;0.70;;;2.00;99.90;;;;;;5008739;28;20028;-59
2023/03/05 06:10:19;;;;;;;1.02;0.73;;;2.10;99.90;;;;;;4996737;28;20026;-58
2023/03/05 06:12:45;;;;;;;4.22;1.00;;;2.00;99.90;;;;;;5011082;28;20522;-59
2023/03/05 06:15:11;;;;;;;3.85;0.90;;;2.00;99.90;;;;;;5002188;28;20132;-58
2023/03/05 06:17:37;;;;;;;4.07;1.30;;;2.00;99.90;;;;;;5004920;28;20064;-59
2023/03/05 06:20:03;;;;;;;7.47;1.92;;;2.00;99.90;;;;;;5009484;28;20022;-59
2023/03/05 06:22:29;;;;;;;4.20;1.13;;;2.00;99.90;;;;;;4994579;28;20033;-58
2023/03/05 06:24:55;;;;;;;3.97;1.15;;;2.00;99.90;;;;;;5011527;28;20022;-59
2023/03/05 06:27:21;;;;;;;2.55;0.98;;;2.00;99.90;;;;;;4980002;28;20129;-58
2023/03/05 06:29:46;;;;;;;10.77;1.10;;;2.00;99.90;;;;;;5001533;28;20066;-58
2023/03/05 06:32:12;;;;;;;1.73;1.27;;;2.00;99.90;;;;;;4998231;28;20054;-59
2023/03/05 06:34:37;;;;;;;5.88;1.00;;;2.00;99.90;;;;;;5012007;28;20037;-59
2023/03/05 06:37:03;;;;;;;3.85;1.10;;;2.00;99.90;;;;;;4992894;28;20105;-59
2023/03/05 06:39:30;;;;;;;1.60;0.90;;;2.10;99.90;;;;;;5008978;28;20421;-58
2023/03/05 06:41:56;;;;;;;3.88;1.30;;;2.10;99.90;;;;;;5002650;28;20174;-59
2023/03/05 06:44:22;;;;;;;3.58;1.70;;;2.10;99.90;;;;;;5000284;28;20026;-58
2023/03/05 06:46:48;;;;;;;3.78;1.60;;;2.20;99.90;;;;;;5013521;28;20047;-59
2023/03/05 06:49:13;;;;;;;2.55;1.00;;;2.20;99.90;;;;;;4996049;28;20038;-60
2023/03/05 06:51:39;;;;;;;3.72;0.95;;;2.20;99.90;;;;;;5010467;28;20440;-58
2023/03/05 06:54:08;;;;;;;2.80;1.00;;;2.20;99.90;;;;;;4999734;28;20517;-58
2023/03/05 06:56:38;;;;;;;2.00;1.35;;;2.20;99.90;;;;;;5007287;28;20402;-57
2023/03/05 06:59:04;;;;;;;4.03;1.13;;;2.20;99.90;;;;;;5010180;28;20030;-58
2023/03/05 07:01:29;;;;;;;3.10;0.95;;;2.20;99.90;;;;;;5000363;28;20027;-60
2023/03/05 07:03:58;;;;;;;2.47;1.05;;;2.20;99.90;;;;;;5016600;28;20025;-60
2023/03/05 07:06:24;;;;;;;1.55;1.08;;;2.20;99.90;;;;;;4999128;28;20026;-61
2023/03/05 07:08:49;;;;;;;3.50;1.35;;;2.20;99.90;;;;;;5005833;28;20036;-60
2023/03/05 07:11:19;;;;;;;5.20;1.23;;;2.20;99.90;;;;;;5007233;28;20034;-60
2023/03/05 07:13:48;;;;;;;6.95;2.03;;;2.10;99.90;;;;;;4996119;28;20382;-59
2023/03/05 07:16:17;;;;;;;5.65;1.83;;;2.10;99.90;;;;;;5014032;28;20026;-59
2023/03/05 07:18:43;;;;;;;5.47;1.38;;;2.10;99.90;;;;;;4996735;28;20212;-60
2023/03/05 07:21:10;;;;;;;4.57;1.40;;;2.00;99.90;;;;;;5010048;28;20030;-59
2023/03/05 07:23:35;;;;;;;3.85;1.25;;;2.00;99.90;;;;;;5006283;28;20041;-59
2023/03/05 07:26:04;;;;;;;2.75;1.48;;;2.00;99.90;;;;;;4996995;28;20030;-60
2023/03/05 07:28:30;;;;;;;3.60;1.20;;;1.90;99.90;;;;;;5018108;28;20046;-61
2023/03/05 07:31:02;;;;;;;1.88;1.35;;;2.00;99.90;;;;;;4998390;28;20030;-60
2023/03/05 07:33:28;;;;;;;2.92;1.27;;;2.00;99.90;;;;;;5013585;28;20525;-60
2023/03/05 07:35:54;;;;;;;3.63;1.13;;;2.00;99.90;;;;;;5009440;28;20038;-60
2023/03/05 07:38:20;;;;;;;3.28;1.30;;;2.10;99.90;;;;;;5005846;28;20558;-60
2023/03/05 07:40:45;;;;;;;2.90;1.35;;;2.10;99.90;;;;;;5019094;28;20144;-60
2023/03/05 07:43:11;;;;;;;2.63;1.20;;;2.20;99.90;;;;;;4995670;28;20105;-60
2023/03/05 07:45:41;;;;;;;3.45;1.30;;;2.20;99.90;;;;;;5015983;28;20041;-59
2023/03/05 07:48:12;;;;;;;4.33;1.47;;;2.30;99.90;;;;;;5006004;28;20038;-59
2023/03/05 07:50:38;;;;;;;2.85;1.30;;;2.40;99.90;;;;;;5007784;28;20402;-60
2023/03/05 07:53:04;;;;;;;2.97;1.20;;;2.30;99.90;;;;;;5014802;28;20558;-60
2023/03/05 07:55:30;;;;;;;4.53;1.38;;;2.40;99.90;;;;;;4999082;28;20030;-60
2023/03/05 07:57:55;;;;;;;2.45;1.55;;;2.40;99.90;;;;;;5017585;28;20030;-59
2023/03/05 08:00:21;;;;;;;3.80;1.30;;;2.40;99.90;;;;;;5003789;28;20033;-59
2023/03/05 08:02:47;;;;;;;1.88;1.00;;;2.50;99.90;;;;;;5011436;28;20034;-60
2023/03/05 08:05:13;;;;;;;1.90;1.20;;;2.50;99.90;;;;;;5009952;28;20040;-61
2023/03/05 08:07:39;;;;;;;7.90;1.33;;;2.60;99.90;;;;;;5000921;28;20029;-60
2023/03/05 08:10:05;;;;;;;1.83;0.95;;;2.70;99.90;;;;;;5018398;28;20038;-60
2023/03/05 08:12:31;;;;;;;4.85;1.27;;;2.70;99.90;;;;;;4998543;28;20049;-60
2023/03/05 08:14:57;;;;;;;1.25;0.90;;;2.70;99.90;;;;;;5009059;28;20072;-60
2023/03/05 08:17:22;;;;;;;3.60;1.60;;;2.80;99.90;;;;;;5008371;28;20042;-59
2023/03/05 08:19:48;;;;;;;3.15;1.00;;;2.90;99.90;;;;;;5000708;28;20375;-60
2023/03/05 08:22:16;;;;;;;7.35;5.07;;;3.00;99.90;;;;;;5018373;28;20025;-59
2023/03/05 08:24:42;;;;;;;4.70;1.20;;;3.00;99.90;;;;;;4997917;28;20085;-60
2023/03/05 08:27:08;;;;;;;2.40;1.08;;;3.10;99.90;;;;;;5010962;28;20057;-60
2023/03/05 08:29:33;;;;;;;3.42;1.00;;;3.10;99.90;;;;;;5009668;28;20038;-60
2023/03/05 08:31:59;;;;;;;2.65;1.08;;;3.10;99.90;;;;;;5003259;28;20444;-59
2023/03/05 08:34:25;;;;;;;3.38;1.00;;;3.10;99.90;;;;;;5020128;28;20032;-60
2023/03/05 08:36:50;;;;;;;2.03;1.02;;;3.20;99.90;;;;;;4998539;28;20037;-61
2023/03/05 08:39:16;;;;;;;2.58;0.90;;;3.20;99.90;;;;;;5010074;28;20060;-59
2023/03/05 08:41:42;;;;;;;1.50;0.70;;;3.40;99.90;;;;;;5009744;28;20034;-59
2023/03/05 08:44:08;;;;;;;7.15;1.75;;;3.40;99.90;;;;;;5003147;28;20026;-61
2023/03/05 08:46:33;;;;;;;2.78;1.00;;;3.50;99.40;;;;;;5015519;28;20033;-59
2023/03/05 08:48:59;;;;;;;1.30;0.77;;;3.50;99.50;;;;;;4997889;28;20109;-58
2023/03/05 08:51:26;;;;;;;2.63;0.90;;;3.40;99.30;;;;;;5009368;28;20096;-61
2023/03/05 08:53:54;;;;;;;2.83;0.73;;;3.50;99.40;;;;;;5003111;28;20514;-61
2023/03/05 08:56:20;;;;;;;2.35;1.10;;;3.50;98.40;;;;;;5004690;28;20037;-61
2023/03/05 08:58:46;;;;;;;3.92;0.93;;;3.50;98.10;;;;;;5013667;28;20497;-61
2023/03/05 09:01:13;;;;;;;2.00;0.80;;;3.60;98.20;;;;;;4996119;28;20087;-58
2023/03/05 09:03:39;;;;;;;4.18;0.70;;;3.60;96.90;;;;;;5017454;28;20037;-59
2023/03/05 09:06:07;;;;;;;1.63;0.77;;;3.50;96.50;;;;;;5004415;28;20033;-60
2023/03/05 09:08:34;;;;;;;2.53;1.20;;;3.60;96.80;;;;;;5008853;28;20402;-59
2023/03/05 09:11:04;;;;;;;2.25;0.70;;;3.70;96.10;;;;;;5012408;28;20030;-60
2023/03/05 09:13:30;;;;;;;1.80;0.80;;;3.80;95.00;;;;;;4998357;28;20116;-60
2023/03/05 09:15:58;;;;;;;1.92;0.95;;;3.80;94.60;;;;;;5018782;28;20037;-60
2023/03/05 09:18:24;;;;;;;1.92;1.13;;;3.90;94.90;;;;;;5000705;28;20809;-60
2023/03/05 09:20:50;;;;;;;1.52;0.75;;;4.00;95.10;;;;;;5008542;28;20030;-60
2023/03/05 09:23:16;;;;;;;2.03;1.10;;;4.10;94.60;;;;;;5009597;28;20033;-59
2023/03/05 09:25:41;;;;;;;3.33;1.02;;;4.10;94.80;;;;;;4998232;28;20502;-60
2023/03/05 09:28:07;;;;;;;2.00;0.90;;;4.20;94.50;;;;;;5013078;28;20034;-61
2023/03/05 09:30:34;;;;;;;2.83;1.35;;;4.20;94.00;;;;;;4998316;28;20034;-59
2023/03/05 09:33:00;;;;;;;1.73;0.63;;;4.20;93.30;;;;;;5006600;28;20033;-60
2023/03/05 09:35:26;;;;;;;2.05;0.70;;;4.10;93.20;;;;;;5005953;28;20038;-60
2023/03/05 09:37:52;;;;;;;3.45;0.95;;;4.00;92.60;;;;;;5002790;28;20029;-60
2023/03/05 09:40:19;;;;;;;2.40;1.08;;;3.90;92.60;;;;;;5016621;28;20505;-60
2023/03/05 09:43:27;;;;;;;1.90;0.60;;;3.90;93.30;;;;;;4996400;28;20113;-61
2023/03/05 09:46:13;;;;;;;2.30;0.60;;;3.90;92.90;;;;;;4963737;28;20061;-59
2023/03/05 09:48:39;;;;;;;1.70;0.70;;;3.90;92.50;;;;;;5013682;28;20029;-60
2023/03/05 09:51:11;;;;;;;1.77;0.65;;;3.90;93.30;;;;;;5002635;28;20034;-60
2023/03/05 09:53:45;;;;;;;2.13;0.60;;;4.00;93.30;;;;;;5003807;28;20045;-59
2023/03/05 09:56:14;;;;;;;1.13;0.80;;;4.10;93.10;;;;;;5004974;28;20035;-59
2023/03/05 09:58:49;;;;;;;3.50;0.80;;;4.10;92.50;;;;;;5001743;28;20018;-59
2023/03/05 10:01:28;;;;;;;12.63;5.45;;;4.00;92.60;;;;;;5016920;28;20025;-61
2023/03/05 10:04:20;;;;;;;2.70;1.00;;;4.00;92.50;;;;;;4995873;28;20042;-59
2023/03/05 10:06:54;;;;;;;3.28;1.02;;;4.10;92.30;;;;;;5014008;28;20084;-61
2023/03/05 10:09:45;;;;;;;1.38;0.70;;;4.30;92.60;;;;;;4999894;28;20034;-60
2023/03/05 10:12:18;;;;;;;2.10;0.80;;;4.60;92.10;;;;;;5009132;28;20364;-59
2023/03/05 10:14:44;;;;;;;2.15;1.00;;;4.90;91.40;;;;;;5003581;28;20279;-60
2023/03/05 10:17:16;;;;;;;1.60;0.60;;;5.10;90.80;;;;;;5000572;28;20038;-60
2023/03/05 10:19:52;;;;;;;3.10;0.55;;;5.30;91.00;;;;;;5011974;28;20030;-61
2023/03/05 10:22:45;;;;;;;1.08;0.68;;;5.40;88.00;;;;;;4999176;28;20080;-61
2023/03/05 10:25:29;;;;;;;1.98;0.65;;;5.40;89.10;;;;;;4989160;28;20066;-58
2023/03/05 10:28:04;;;;;;;1.23;0.57;;;5.40;87.50;;;;;;4997052;28;20510;-60
2023/03/05 10:31:04;;;;;;;1.60;0.90;;;5.40;87.90;;;;;;4998471;28;20542;-60
2023/03/05 10:33:30;;;;;;;2.80;0.70;;;5.50;87.10;;;;;;4999404;28;20037;-60
2023/03/05 10:36:34;;;;;;;1.60;0.80;;;5.80;87.60;;;;;;4995691;28;20039;-59
2023/03/05 10:39:11;;;;;;;0.73;0.50;;;6.00;88.90;;;;;;4994169;28;20144;-60
2023/03/05 10:42:06;;;;;;;0.85;0.70;;;6.00;87.90;;;;;;4992378;28;20503;-59
2023/03/05 10:44:45;;;;;;;1.10;0.70;;;6.00;85.50;;;;;;4994001;28;20112;-59
2023/03/05 10:47:49;;;;;;;2.22;0.55;;;6.10;84.70;;;;;;4993139;28;20030;-59
2023/03/05 10:50:31;;;;;;;0.88;0.40;;;6.10;84.00;;;;;;5002006;28;20026;-60
2023/03/05 10:53:05;;;;;;;;;;;6.10;83.10;;;;;;5001897;28;20037;-61
2023/03/05 10:55:31;;;;;;;1.60;0.80;;;6.00;82.40;;;;;;4998522;28;20005;-61
2023/03/05 10:57:56;;;;;;;1.27;0.85;;;5.90;84.00;;;;;;5015216;28;20120;-60
2023/03/05 11:00:25;;;;;;;4.53;1.40;;;5.70;83.40;;;;;;4998961;28;20189;-59
2023/03/05 11:03:03;;;;;;;2.35;0.70;;;5.40;82.50;;;;;;5004630;28;20067;-60
2023/03/05 11:05:46;;;;;;;0.82;0.50;;;5.10;82.90;;;;;;5008024;28;20040;-61
2023/03/05 11:08:34;;;;;;;1.42;0.60;;;4.90;83.20;;;;;;5000421;28;20430;-60
2023/03/05 11:11:09;;;;;;;1.48;0.60;;;4.70;85.30;;;;;;5008346;28;20057;-60
2023/03/05 11:14:02;;;;;;;1.65;0.52;;;4.60;85.70;;;;;;4993734;28;20029;-59
2023/03/05 11:16:31;;;;;;;3.35;0.70;;;4.60;86.30;;;;;;5014570;28;20051;-59
2023/03/05 11:19:21;;;;;;;0.95;0.55;;;4.70;87.30;;;;;;4995227;28;20033;-60
2023/03/05 11:22:15;;;;;;;2.17;0.70;;;4.70;85.90;;;;;;5010417;28;20033;-61
2023/03/05 11:24:41;;;;;;;1.10;0.60;;;4.90;87.20;;;;;;4997504;28;20027;-59
2023/03/05 11:27:30;;;;;;;0.95;0.60;;;5.00;86.10;;;;;;5006552;28;20121;-58
2023/03/05 11:29:57;;;;;;;2.53;0.70;;;5.10;86.10;;;;;;5003340;28;20022;-59
2023/03/05 11:32:26;;;;;;;1.83;1.00;;;5.00;86.80;;;;;;4981847;28;20454;-58
2023/03/05 11:34:54;;;;;;;3.70;0.60;;;4.90;86.50;;;;;;4998751;28;20034;-58
2023/03/05 11:37:31;;;;;;;1.92;0.77;;;4.80;87.50;;;;;;5015399;28;20028;-59
2023/03/05 11:40:23;;;;;;;1.40;0.68;;;4.70;88.00;;;;;;5013029;28;20038;-59
2023/03/05 11:43:00;;;;;;;2.55;1.13;;;4.60;89.50;;;;;;4996413;28;20390;-59
2023/03/05 11:45:28;;;;;;;1.58;0.90;;;4.60;89.60;;;;;;5010275;28;20084;-59
2023/03/05 11:48:08;;;;;;;2.63;0.80;;;4.50;90.60;;;;;;5002833;28;20057;-60
2023/03/05 11:50:36;;;;;;;2.08;1.10;;;4.50;90.50;;;;;;5004476;28;20026;-58
2023/03/05 11:53:08;;;;;;;4.88;1.25;;;4.40;90.40;;;;;;5005768;28;20026;-58
2023/03/05 11:55:40;;;;;;;2.25;1.50;;;4.30;90.80;;;;;;4996607;28;20017;-60
2023/03/05 11:58:32;;;;;;;5.50;2.55;;;4.40;91.00;;;;;;5015390;28;20120;-59
2023/03/05 12:01:00;;;;;;;20.08;11.05;;;4.50;91.30;;;;;;5005939;28;20037;-58
2023/03/05 12:03:35;;;;;;;2.80;1.15;;;4.50;91.60;;;;;;5016246;28;20040;-59
2023/03/05 12:06:33;;;;;;;3.70;1.40;;;4.60;91.00;;;;;;5003391;28;20394;-60
2023/03/05 12:09:06;;;;;;;1.48;1.10;;;4.50;90.70;;;;;;4963416;28;20022;-58
2023/03/05 12:11:32;;;;;;;1.25;0.88;;;4.50;91.00;;;;;;5005225;28;20497;-59
2023/03/05 12:14:13;;;;;;;3.50;1.20;;;4.70;91.30;;;;;;5013574;28;20380;-58
2023/03/05 12:16:56;;;;;;;2.67;0.95;;;4.90;90.60;;;;;;5000047;28;20038;-58
2023/03/05 12:19:33;;;;;;;3.63;1.00;;;5.10;90.10;;;;;;5017312;28;20046;-59
2023/03/05 12:21:59;;;;;;;1.25;0.50;;;5.40;90.20;;;;;;5019973;28;20079;-60
2023/03/05 12:24:25;;;;;;;2.03;1.10;;;5.50;87.10;;;;;;5016926;28;20133;-60
2023/03/05 12:26:55;;;;;;;2.67;0.65;;;5.50;87.50;;;;;;5015975;28;20839;-59
2023/03/05 12:29:38;;;;;;;2.05;0.70;;;5.50;87.20;;;;;;5016351;28;20045;-59
2023/03/05 12:32:21;;;;;;;1.88;0.98;;;5.50;86.50;;;;;;5018138;28;20121;-59
2023/03/05 12:34:54;;;;;;;1.27;0.70;;;5.40;87.80;;;;;;5019466;28;20087;-59
2023/03/05 12:37:20;;;;;;;1.85;0.70;;;5.30;86.70;;;;;;5018246;28;20026;-58
2023/03/05 12:39:57;;;;;;;2.03;0.70;;;5.20;87.00;;;;;;5016968;28;20037;-59
2023/03/05 12:42:28;;;;;;;3.05;1.30;;;5.00;87.10;;;;;;5015347;28;20123;-59
2023/03/05 12:45:13;;;;;;;2.00;0.60;;;4.90;88.50;;;;;;5014006;28;20403;-59
2023/03/05 12:47:54;;;;;;;2.25;0.73;;;4.90;87.40;;;;;;5021087;28;20092;-60
2023/03/05 12:50:25;;;;;;;2.63;1.10;;;5.00;87.80;;;;;;5015823;28;20117;-59
2023/03/05 12:52:52;;;;;;;3.28;1.10;;;5.00;87.70;;;;;;5018370;28;20609;-59
2023/03/05 12:55:28;;;;;;;1.90;0.90;;;5.10;88.40;;;;;;5017549;28;20100;-57
2023/03/05 12:58:26;;;;;;;1.85;1.30;;;5.20;87.40;;;;;;5018865;28;20049;-60
2023/03/05 13:01:13;;;;;;;3.22;0.95;;;5.20;86.60;;;;;;4986142;28;20030;-59
2023/03/05 13:03:54;;;;;;;2.33;0.82;;;5.20;87.10;;;;;;5014118;28;20053;-59
2023/03/05 13:06:34;;;;;;;1.10;0.82;;;5.30;87.70;;;;;;5018155;28;20045;-59